createdAt,value
2022-09-03T00:03:01.589Z,13.00
2022-09-03T00:05:39.453Z,13.48
2022-09-03T00:08:15.921Z,12.85
2022-09-03T00:10:52.282Z,13.98
2022-09-03T00:13:27.409Z,13.52
2022-09-03T00:15:58.309Z,15.52
2022-09-03T00:18:31.862Z,15.48
2022-09-03T00:23:42.531Z,14.73
2022-09-03T00:26:25.766Z,14.60
2022-09-03T00:29:01.289Z,13.82
2022-09-03T00:31:36.911Z,13.15
2022-09-03T00:34:11.093Z,14.02
2022-09-03T00:36:43.425Z,14.60
2022-09-03T00:39:16.727Z,13.25
2022-09-03T00:41:59.233Z,15.35
2022-09-03T00:45:10.647Z,13.43
2022-09-03T00:47:49.791Z,14.30
2022-09-03T00:50:25.655Z,13.60
2022-09-03T00:53:01.580Z,13.73
2022-09-03T00:55:39.399Z,16.33
2022-09-03T00:58:30.075Z,14.88
2022-09-03T01:00:58.767Z,12.52
2022-09-03T01:03:37.802Z,14.88
2022-09-03T01:06:17.439Z,13.90
2022-09-03T01:09:05.807Z,13.25
2022-09-03T01:11:47.561Z,14.00
2022-09-03T01:14:28.557Z,15.65
2022-09-03T01:17:03.688Z,14.23
2022-09-03T01:20:19.567Z,14.60
2022-09-03T01:23:25.237Z,15.52
2022-09-03T01:25:59.434Z,13.27
2022-09-03T01:28:43.518Z,13.80
2022-09-03T01:31:26.955Z,12.55
2022-09-03T01:34:04.234Z,13.30
2022-09-03T01:36:39.891Z,15.40
2022-09-03T01:39:15.088Z,12.15
2022-09-03T01:42:11.425Z,13.65
2022-09-03T01:45:07.908Z,13.82
2022-09-03T01:47:51.626Z,12.32
2022-09-03T01:50:38.209Z,12.93
2022-09-03T01:53:13.229Z,11.90
2022-09-03T01:55:57.118Z,11.68
2022-09-03T02:01:04.716Z,11.05
2022-09-03T02:03:40.879Z,11.70
2022-09-03T02:06:11.896Z,12.07
2022-09-03T02:08:42.054Z,13.50
2022-09-03T02:11:11.723Z,12.77
2022-09-03T02:13:42.975Z,12.07
2022-09-03T02:16:18.685Z,10.25
2022-09-03T02:18:51.645Z,12.27
2022-09-03T02:21:24.722Z,12.23
2022-09-03T02:23:55.433Z,8.98
2022-09-03T02:29:08.698Z,12.00
2022-09-03T02:31:38.497Z,11.23
2022-09-03T02:34:10.766Z,11.55
2022-09-03T02:36:41.113Z,13.73
2022-09-03T02:39:09.806Z,15.82
2022-09-03T02:41:38.175Z,15.55
2022-09-03T02:44:11.893Z,16.58
2022-09-03T02:46:45.288Z,15.32
2022-09-03T02:49:13.841Z,14.10
2022-09-03T02:51:45.621Z,15.48
2022-09-03T02:54:20.223Z,17.40
2022-09-03T02:56:49.924Z,18.67
2022-09-03T02:59:18.636Z,18.92
2022-09-03T03:01:48.272Z,24.55
2022-09-03T03:04:16.735Z,21.60
2022-09-03T03:06:47.641Z,21.40
2022-09-03T03:09:16.878Z,21.33
2022-09-03T03:11:45.844Z,17.52
2022-09-03T03:14:14.221Z,21.48
2022-09-03T03:16:42.667Z,21.40
2022-09-03T03:19:13.335Z,19.40
2022-09-03T03:21:41.642Z,21.40
2022-09-03T03:24:10.731Z,24.27
2022-09-03T03:26:39.433Z,23.52
2022-09-03T03:29:08.007Z,23.30
2022-09-03T03:31:36.563Z,24.60
2022-09-03T03:34:05.757Z,26.80
2022-09-03T03:36:37.123Z,22.75
2022-09-03T03:39:05.802Z,24.17
2022-09-03T03:41:35.929Z,22.90
2022-09-03T03:44:06.854Z,23.67
2022-09-03T03:46:37.177Z,23.38
2022-09-03T03:49:07.525Z,30.27
2022-09-03T03:51:39.389Z,28.23
2022-09-03T03:54:08.562Z,27.23
2022-09-03T03:56:37.088Z,25.33
2022-09-03T03:59:06.366Z,28.00
2022-09-03T04:01:34.755Z,26.80
2022-09-03T04:04:03.076Z,28.52
2022-09-03T04:06:31.627Z,25.90
2022-09-03T04:09:01.427Z,26.60
2022-09-03T04:11:29.667Z,23.73
2022-09-03T04:13:58.305Z,26.23
2022-09-03T04:16:28.642Z,28.60
2022-09-03T04:18:58.216Z,29.23
2022-09-03T04:21:28.801Z,25.60
2022-09-03T04:23:58.024Z,26.75
2022-09-03T04:26:31.688Z,29.33
2022-09-03T04:29:02.496Z,26.83
2022-09-03T04:31:31.162Z,27.88
2022-09-03T04:34:03.534Z,27.88
2022-09-03T04:36:32.511Z,24.35
2022-09-03T04:39:02.958Z,27.45
2022-09-03T04:41:33.357Z,29.98
2022-09-03T04:44:02.152Z,24.67
2022-09-03T04:46:33.740Z,27.92
2022-09-03T04:49:03.059Z,26.23
2022-09-03T04:51:32.039Z,25.02
2022-09-03T04:54:02.695Z,23.63
2022-09-03T04:56:34.299Z,23.08
2022-09-03T04:59:04.410Z,22.98
2022-09-03T05:01:36.146Z,30.63
2022-09-03T05:04:05.165Z,28.98
2022-09-03T05:06:33.894Z,28.75
2022-09-03T05:09:02.748Z,29.00
2022-09-03T05:11:31.338Z,31.27
2022-09-03T05:14:01.982Z,32.00
2022-09-03T05:16:31.453Z,32.08
2022-09-03T05:19:01.651Z,31.05
2022-09-03T05:21:31.407Z,29.98
2022-09-03T05:24:02.639Z,29.83
2022-09-03T05:26:33.200Z,29.25
2022-09-03T05:29:06.384Z,29.02
2022-09-03T05:31:36.516Z,29.60
2022-09-03T05:34:06.848Z,26.25
2022-09-03T05:36:37.873Z,27.17
2022-09-03T05:39:06.771Z,26.75
2022-09-03T05:41:35.522Z,27.13
2022-09-03T05:44:06.190Z,28.98
2022-09-03T05:46:37.937Z,28.40
2022-09-03T05:49:08.070Z,28.60
2022-09-03T05:51:37.369Z,29.85
2022-09-03T05:54:05.820Z,29.83
2022-09-03T05:56:36.117Z,30.42
2022-09-03T05:59:09.396Z,28.10
2022-09-03T06:01:45.812Z,27.13
2022-09-03T06:04:19.410Z,27.55
2022-09-03T06:06:49.416Z,27.85
2022-09-03T06:09:19.884Z,25.42
2022-09-03T06:11:50.065Z,26.30
2022-09-03T06:14:20.117Z,23.63
2022-09-03T06:16:50.251Z,25.30
2022-09-03T06:19:18.829Z,24.70
2022-09-03T06:21:48.209Z,20.92
2022-09-03T06:24:17.804Z,23.60
2022-09-03T06:26:46.691Z,23.63
2022-09-03T06:29:15.624Z,22.30
2022-09-03T06:31:45.548Z,22.23
2022-09-03T06:34:13.704Z,19.92
2022-09-03T06:36:42.568Z,21.40
2022-09-03T06:39:10.954Z,19.40
2022-09-03T06:41:40.249Z,20.38
2022-09-03T06:44:12.529Z,18.65
2022-09-03T06:46:43.089Z,15.63
2022-09-03T06:49:13.431Z,16.65
2022-09-03T06:51:43.416Z,17.08
2022-09-03T06:54:13.335Z,17.25
2022-09-03T06:56:42.963Z,15.82
2022-09-03T06:59:12.750Z,15.02
2022-09-03T07:01:43.725Z,18.05
2022-09-03T07:04:16.708Z,16.67
2022-09-03T07:06:47.424Z,17.63
2022-09-03T07:09:18.559Z,17.17
2022-09-03T07:11:50.134Z,16.33
2022-09-03T07:14:19.896Z,17.80
2022-09-03T07:16:49.440Z,16.85
2022-09-03T07:19:19.809Z,18.65
2022-09-03T07:21:50.444Z,17.42
2022-09-03T07:24:19.959Z,16.25
2022-09-03T07:26:49.604Z,18.95
2022-09-03T07:29:21.103Z,16.38
2022-09-03T07:31:52.413Z,16.77
2022-09-03T07:34:26.818Z,15.00
2022-09-03T07:36:56.429Z,16.50
2022-09-03T07:39:24.910Z,14.65
2022-09-03T07:41:53.921Z,14.20
2022-09-03T07:44:24.559Z,14.65
2022-09-03T07:46:53.211Z,14.52
2022-09-03T07:49:23.152Z,13.75
2022-09-03T07:51:54.606Z,16.50
2022-09-03T07:54:24.217Z,15.05
2022-09-03T07:56:52.579Z,13.52
2022-09-03T07:59:23.166Z,12.55
2022-09-03T08:01:52.315Z,12.45
2022-09-03T08:04:23.382Z,13.57
2022-09-03T08:06:55.930Z,14.27
2022-09-03T08:09:25.035Z,11.97
2022-09-03T08:11:53.479Z,11.23
2022-09-03T08:14:22.204Z,9.65
2022-09-03T08:16:50.868Z,10.55
2022-09-03T08:19:19.944Z,10.27
2022-09-03T08:21:49.960Z,9.50
2022-09-03T08:24:21.372Z,11.13
2022-09-03T08:26:52.372Z,9.65
2022-09-03T08:29:23.628Z,11.13
2022-09-03T08:31:52.513Z,10.07
2022-09-03T08:34:21.507Z,10.15
2022-09-03T08:36:52.564Z,9.73
2022-09-03T08:39:21.786Z,10.60
2022-09-03T08:42:15.337Z,11.10
2022-09-03T08:44:48.197Z,9.77
2022-09-03T08:47:21.828Z,12.45
2022-09-03T08:49:55.724Z,10.43
2022-09-03T08:52:32.707Z,10.02
2022-09-03T08:55:21.947Z,11.82
2022-09-03T08:57:52.619Z,14.10
2022-09-03T09:00:21.696Z,11.35
2022-09-03T09:03:16.924Z,10.38
2022-09-03T09:05:52.019Z,11.15
2022-09-03T09:08:33.593Z,10.20
2022-09-03T09:11:10.060Z,11.82
2022-09-03T09:13:47.578Z,11.32
2022-09-03T09:16:23.174Z,11.25
2022-09-03T09:19:03.394Z,10.38
2022-09-03T09:21:38.102Z,10.60
2022-09-03T09:24:13.958Z,10.85
2022-09-03T09:26:42.852Z,9.82
2022-09-03T09:29:14.274Z,12.75
2022-09-03T09:31:45.193Z,13.75
2022-09-03T09:34:14.248Z,10.93
2022-09-03T09:36:50.085Z,11.90
2022-09-03T09:39:19.775Z,11.30
2022-09-03T09:41:59.843Z,11.25
2022-09-03T09:44:28.402Z,9.65
2022-09-03T09:47:15.475Z,10.00
2022-09-03T09:49:53.946Z,10.43
2022-09-03T09:52:26.080Z,11.38
2022-09-03T09:55:09.163Z,12.82
2022-09-03T09:57:38.474Z,9.88
2022-09-03T10:00:10.444Z,9.18
2022-09-03T10:02:40.668Z,10.20
2022-09-03T10:05:17.363Z,13.27
2022-09-03T10:07:56.385Z,10.48
2022-09-03T10:10:26.966Z,10.57
2022-09-03T10:13:02.624Z,10.68
2022-09-03T10:15:38.769Z,11.20
2022-09-03T10:18:17.527Z,9.63
2022-09-03T10:20:52.255Z,10.05
2022-09-03T10:23:25.351Z,10.38
2022-09-03T10:26:07.537Z,11.50
2022-09-03T10:28:41.512Z,10.15
2022-09-03T10:31:45.578Z,10.60
2022-09-03T10:34:19.407Z,10.05
2022-09-03T10:36:57.486Z,10.80
2022-09-03T10:39:43.056Z,14.00
2022-09-03T10:42:30.194Z,11.20
2022-09-03T10:45:06.004Z,12.77
2022-09-03T10:47:49.672Z,12.98
2022-09-03T10:50:23.795Z,15.02
2022-09-03T10:53:08.986Z,13.15
2022-09-03T10:55:46.061Z,12.25
2022-09-03T10:58:38.800Z,12.20
2022-09-03T11:01:16.523Z,13.20
2022-09-03T11:03:48.481Z,12.75
2022-09-03T11:06:23.603Z,14.95
2022-09-03T11:09:04.311Z,11.95
2022-09-03T11:11:39.294Z,12.30
2022-09-03T11:14:12.203Z,11.52
2022-09-03T11:16:46.010Z,12.20
2022-09-03T11:19:18.244Z,12.27
2022-09-03T11:21:48.874Z,11.70
2022-09-03T11:24:22.875Z,12.18
2022-09-03T11:26:56.931Z,11.98
2022-09-03T11:29:37.450Z,11.63
2022-09-03T11:32:11.823Z,12.43
2022-09-03T11:34:49.400Z,9.40
2022-09-03T11:37:21.146Z,10.35
2022-09-03T11:39:58.231Z,9.18
2022-09-03T11:42:33.071Z,10.75
2022-09-03T11:45:24.730Z,10.55
2022-09-03T11:47:53.929Z,6.60
2022-09-03T11:50:24.755Z,6.88
2022-09-03T11:52:54.959Z,6.65
2022-09-03T11:55:32.651Z,6.75
2022-09-03T11:58:14.763Z,5.80
2022-09-03T12:00:46.306Z,9.98
2022-09-03T12:03:18.158Z,7.78
2022-09-03T12:05:54.757Z,5.53
2022-09-03T12:08:46.533Z,6.70
2022-09-03T12:11:32.252Z,7.90
2022-09-03T12:14:13.028Z,7.45
2022-09-03T12:17:14.959Z,6.45
2022-09-03T12:19:52.578Z,8.18
2022-09-03T12:22:22.791Z,9.95
2022-09-03T12:24:51.764Z,7.35
2022-09-03T12:27:25.055Z,8.07
2022-09-03T12:30:00.074Z,6.32
2022-09-03T12:32:32.713Z,10.55
2022-09-03T12:35:13.475Z,9.90
2022-09-03T12:40:33.720Z,9.07
2022-09-03T12:46:10.900Z,7.88
2022-09-03T12:48:43.977Z,8.27
2022-09-03T12:54:01.725Z,8.70
2022-09-03T12:56:33.370Z,9.07
2022-09-03T12:59:07.594Z,5.47
2022-09-03T13:01:42.305Z,6.43
2022-09-03T13:04:15.652Z,4.80
2022-09-03T13:06:51.063Z,5.30
2022-09-03T13:09:23.846Z,4.43
2022-09-03T13:11:55.649Z,5.13
2022-09-03T13:14:24.400Z,4.70
2022-09-03T13:17:20.214Z,4.93
2022-09-03T13:20:18.085Z,5.35
2022-09-03T13:23:01.510Z,4.65
2022-09-03T13:25:39.439Z,5.25
2022-09-03T13:28:18.241Z,4.72
2022-09-03T13:30:54.776Z,4.97
2022-09-03T13:33:29.547Z,5.35
2022-09-03T13:36:05.499Z,5.38
2022-09-03T13:38:40.197Z,3.95
2022-09-03T13:41:15.340Z,5.47
2022-09-03T13:43:46.605Z,6.03
2022-09-03T13:46:22.368Z,6.72
2022-09-03T13:49:17.104Z,4.07
2022-09-03T13:51:55.569Z,4.75
2022-09-03T13:54:48.038Z,5.32
2022-09-03T13:57:31.630Z,4.13
2022-09-03T14:00:03.686Z,4.88
2022-09-03T14:02:42.801Z,4.68
2022-09-03T14:05:14.305Z,5.38
2022-09-03T14:07:55.778Z,4.10
2022-09-03T14:10:31.675Z,3.97
2022-09-03T14:13:15.462Z,5.20
2022-09-03T14:15:49.779Z,3.53
2022-09-03T14:18:35.463Z,4.57
2022-09-03T14:21:09.375Z,5.72
2022-09-03T14:23:47.736Z,3.97
2022-09-03T14:26:31.046Z,3.53
2022-09-03T14:29:16.621Z,3.95
2022-09-03T14:32:19.485Z,4.82
2022-09-03T14:35:06.716Z,5.85
2022-09-03T14:37:56.839Z,5.07
2022-09-03T14:40:41.549Z,4.40
2022-09-03T14:43:29.312Z,4.93
2022-09-03T14:46:08.110Z,4.85
2022-09-03T14:49:06.138Z,4.57
2022-09-03T14:51:48.396Z,4.97
2022-09-03T14:54:47.912Z,4.55
2022-09-03T14:57:33.000Z,4.00
2022-09-03T15:00:08.439Z,4.30
2022-09-03T15:03:16.522Z,6.05
2022-09-03T15:05:53.314Z,4.18
2022-09-03T15:08:34.611Z,4.10
2022-09-03T15:11:05.764Z,4.80
2022-09-03T15:13:44.267Z,3.95
2022-09-03T15:16:31.495Z,4.15
2022-09-03T15:19:13.462Z,5.15
2022-09-03T15:22:09.799Z,6.93
2022-09-03T15:24:52.658Z,5.90
2022-09-03T15:27:44.567Z,4.57
2022-09-03T15:30:20.222Z,5.15
2022-09-03T15:32:59.735Z,4.20
2022-09-03T15:35:46.296Z,5.40
2022-09-03T15:38:24.304Z,4.20
2022-09-03T15:40:57.376Z,5.20
2022-09-03T15:43:29.662Z,3.75
2022-09-03T15:46:13.936Z,4.40
2022-09-03T15:48:51.680Z,3.72
2022-09-03T15:51:26.819Z,4.35
2022-09-03T15:54:03.189Z,4.75
2022-09-03T15:56:38.718Z,5.85
2022-09-03T15:59:17.730Z,4.32
2022-09-03T16:01:56.822Z,4.93
2022-09-03T16:04:40.560Z,4.38
2022-09-03T16:07:17.734Z,5.40
2022-09-03T16:10:22.664Z,3.75
2022-09-03T16:12:59.089Z,4.28
2022-09-03T16:15:30.762Z,4.32
2022-09-03T16:18:07.978Z,5.30
2022-09-03T16:20:42.799Z,3.63
2022-09-03T16:23:18.884Z,4.95
2022-09-03T16:25:54.840Z,4.93
2022-09-03T16:28:31.355Z,4.45
2022-09-03T16:31:13.658Z,5.75
2022-09-03T16:33:50.563Z,4.07
2022-09-03T16:36:32.162Z,4.65
2022-09-03T16:39:07.104Z,4.68
2022-09-03T16:41:43.849Z,4.28
2022-09-03T16:44:24.479Z,3.65
2022-09-03T16:47:00.295Z,6.15
2022-09-03T16:49:42.391Z,4.15
2022-09-03T16:52:37.646Z,4.03
2022-09-03T16:55:21.529Z,5.07
2022-09-03T16:58:16.280Z,4.47
2022-09-03T17:00:59.867Z,4.30
2022-09-03T17:04:05.927Z,6.07
2022-09-03T17:06:57.631Z,4.40
2022-09-03T17:09:43.130Z,4.68
2022-09-03T17:12:20.321Z,4.55
2022-09-03T17:15:06.512Z,4.63
2022-09-03T17:18:00.240Z,4.82
2022-09-03T17:23:26.321Z,4.40
2022-09-03T17:26:06.518Z,5.47
2022-09-03T17:28:52.798Z,4.45
2022-09-03T17:31:32.236Z,5.13
2022-09-03T17:34:15.843Z,3.47
2022-09-03T17:36:58.840Z,5.05
2022-09-03T17:39:59.665Z,4.95
2022-09-03T17:42:34.747Z,4.90
2022-09-03T17:45:16.789Z,4.85
2022-09-03T17:48:24.691Z,3.40
2022-09-03T17:50:59.524Z,4.70
2022-09-03T17:53:38.358Z,5.18
2022-09-03T17:56:13.461Z,4.32
2022-09-03T17:58:49.543Z,5.47
2022-09-03T18:01:22.666Z,6.93
2022-09-03T18:03:54.814Z,5.18
2022-09-03T18:06:34.384Z,5.18
2022-09-03T18:09:08.954Z,4.80
2022-09-03T18:11:41.555Z,5.75
2022-09-03T18:14:21.267Z,5.97
2022-09-03T18:16:56.304Z,5.15
2022-09-03T18:19:52.132Z,4.68
2022-09-03T18:22:41.084Z,5.68
2022-09-03T18:25:28.196Z,5.90
2022-09-03T18:28:19.334Z,4.43
2022-09-03T18:31:05.072Z,5.40
2022-09-03T18:33:50.918Z,5.35
2022-09-03T18:36:36.880Z,4.90
2022-09-03T18:39:31.698Z,6.03
2022-09-03T18:42:25.785Z,5.32
2022-09-03T18:45:23.086Z,5.18
2022-09-03T18:48:21.317Z,4.70
2022-09-03T18:51:16.210Z,5.85
2022-09-03T18:54:08.662Z,4.95
2022-09-03T18:56:59.055Z,6.90
2022-09-03T19:00:00.839Z,6.03
2022-09-03T19:02:55.468Z,5.38
2022-09-03T19:05:50.725Z,4.90
2022-09-03T19:08:43.671Z,4.95
2022-09-03T19:11:45.136Z,5.20
2022-09-03T19:14:44.719Z,5.80
2022-09-03T19:17:38.725Z,7.10
2022-09-03T19:20:32.686Z,4.60
2022-09-03T19:26:04.821Z,5.38
2022-09-03T19:28:56.974Z,5.07
2022-09-03T19:32:02.074Z,5.07
2022-09-03T19:35:16.000Z,5.07
2022-09-03T19:38:09.733Z,4.68
2022-09-03T19:41:16.606Z,4.38
2022-09-03T19:44:19.258Z,4.68
2022-09-03T19:47:09.197Z,4.68
2022-09-03T19:50:05.578Z,4.30
2022-09-03T19:52:59.558Z,4.93
2022-09-03T19:58:43.692Z,5.68
2022-09-03T20:01:31.711Z,5.28
2022-09-03T20:04:20.711Z,6.45
2022-09-03T20:07:06.571Z,4.93
2022-09-03T20:09:57.995Z,5.13
2022-09-03T20:12:31.415Z,6.13
2022-09-03T20:17:36.528Z,6.22
2022-09-03T20:20:22.297Z,5.68
2022-09-03T20:22:59.241Z,6.13
2022-09-03T20:25:46.188Z,5.22
2022-09-03T20:28:27.599Z,4.90
2022-09-03T20:31:02.150Z,5.82
2022-09-03T20:33:44.785Z,6.40
2022-09-03T20:36:25.637Z,5.53
2022-09-03T20:39:07.669Z,5.07
2022-09-03T20:41:44.008Z,6.63
2022-09-03T20:44:28.540Z,5.05
2022-09-03T20:47:11.069Z,5.47
2022-09-03T20:49:49.071Z,5.35
2022-09-03T20:52:21.217Z,5.25
2022-09-03T20:54:59.022Z,8.43
2022-09-03T20:57:39.407Z,7.05
2022-09-03T21:00:13.032Z,5.63
2022-09-03T21:05:29.550Z,5.68
2022-09-03T21:08:07.444Z,7.30
2022-09-03T21:10:43.695Z,5.53
2022-09-03T21:13:18.417Z,4.28
2022-09-03T21:15:57.353Z,5.75
2022-09-03T21:18:38.836Z,6.20
2022-09-03T21:21:20.395Z,7.38
2022-09-03T21:24:04.073Z,6.15
2022-09-03T21:26:40.131Z,5.57
2022-09-03T21:29:13.090Z,7.15
2022-09-03T21:31:49.347Z,5.72
2022-09-03T21:34:22.262Z,6.75
2022-09-03T21:36:51.979Z,7.82
2022-09-03T21:39:23.838Z,7.53
2022-09-03T21:41:59.579Z,6.43
2022-09-03T21:44:44.157Z,7.15
2022-09-03T21:47:16.204Z,6.55
2022-09-03T21:49:56.851Z,6.72
2022-09-03T21:52:32.843Z,6.75
2022-09-03T21:55:01.717Z,6.68
2022-09-03T21:57:58.326Z,7.88
2022-09-03T22:00:32.736Z,6.45
2022-09-03T22:03:02.775Z,5.25
2022-09-03T22:05:43.173Z,5.15
2022-09-03T22:08:20.277Z,5.47
2022-09-03T22:11:04.879Z,8.48
2022-09-03T22:13:38.120Z,6.60
2022-09-03T22:16:17.878Z,7.00
2022-09-03T22:18:50.395Z,6.28
2022-09-03T22:21:23.603Z,6.80
2022-09-03T22:24:14.724Z,5.80
2022-09-03T22:26:49.484Z,5.32
2022-09-03T22:29:30.547Z,6.63
2022-09-03T22:32:06.112Z,8.35
2022-09-03T22:35:13.135Z,9.68
2022-09-03T22:37:54.269Z,8.73
2022-09-03T22:40:28.169Z,10.88
2022-09-03T22:43:10.665Z,7.75
2022-09-03T22:45:54.469Z,7.25
2022-09-03T22:51:01.608Z,8.68
2022-09-03T22:53:43.380Z,9.63
2022-09-03T22:56:14.337Z,6.82
2022-09-03T22:58:49.366Z,6.00
2022-09-03T23:01:21.257Z,7.95
2022-09-03T23:03:55.040Z,8.43
2022-09-03T23:06:32.700Z,8.63
2022-09-03T23:09:04.995Z,11.18
2022-09-03T23:11:38.909Z,8.65
2022-09-03T23:14:10.293Z,5.90
2022-09-03T23:16:43.201Z,7.25
2022-09-03T23:21:52.479Z,6.93
2022-09-03T23:24:28.486Z,7.72
2022-09-03T23:26:57.047Z,8.88
2022-09-03T23:29:29.952Z,7.68
2022-09-03T23:31:59.023Z,6.20
2022-09-03T23:34:28.600Z,10.10
2022-09-03T23:37:33.013Z,7.60
2022-09-03T23:40:18.421Z,7.82
2022-09-03T23:43:09.446Z,8.77
2022-09-03T23:45:45.963Z,7.70
2022-09-03T23:48:24.510Z,8.27
2022-09-03T23:51:01.683Z,8.70
2022-09-03T23:53:39.974Z,8.82
2022-09-03T23:56:30.244Z,8.30
2022-09-03T23:59:11.820Z,8.25
